createdAt,value
2022-08-18T05:05:11.606Z,15.33
2022-08-18T05:15:14.247Z,16.46
2022-08-18T05:35:41.774Z,17.97
2022-08-18T05:45:44.459Z,18.61
2022-08-18T05:56:16.059Z,19.14
2022-08-18T06:06:24.094Z,19.37
2022-08-18T06:16:38.828Z,19.56
2022-08-18T06:27:19.742Z,19.88
2022-08-18T06:37:28.677Z,20.45
2022-08-18T06:47:54.992Z,21.02
2022-08-18T06:58:00.923Z,21.57
2022-08-18T07:08:20.673Z,22.39
2022-08-18T07:18:26.834Z,24.79
2022-08-18T07:28:31.035Z,26.29
2022-08-18T07:39:02.919Z,27.67
2022-08-18T07:49:07.383Z,30.80
2022-08-18T07:59:11.467Z,34.57
2022-08-18T08:09:20.053Z,35.89
2022-08-18T08:19:56.728Z,37.98
2022-08-18T08:29:57.086Z,37.05
2022-08-18T08:40:06.775Z,34.94
2022-08-18T08:50:22.620Z,33.10
2022-08-18T09:11:06.318Z,32.38
2022-08-18T09:21:40.149Z,31.58
2022-08-18T09:31:45.763Z,31.10
2022-08-18T09:41:55.366Z,31.39
2022-08-18T10:02:30.425Z,31.08
2022-08-18T10:12:44.513Z,31.18
2022-08-18T10:22:50.545Z,31.47
2022-08-18T10:54:04.945Z,31.92
2022-08-18T11:04:14.164Z,31.40
2022-08-18T11:14:42.788Z,31.42
2022-08-18T11:24:46.329Z,30.98
2022-08-18T11:35:07.707Z,30.74
2022-08-18T11:45:17.958Z,30.83
2022-08-18T11:55:33.380Z,30.27
2022-08-18T12:05:58.801Z,29.62
2022-08-18T12:16:12.323Z,29.24
2022-08-18T12:26:26.929Z,28.51
2022-08-18T12:36:38.413Z,27.87
2022-08-18T12:46:43.293Z,27.72
2022-08-18T12:56:49.041Z,29.01
2022-08-18T13:07:00.617Z,30.05
2022-08-18T13:17:04.849Z,30.78
2022-08-18T13:27:18.488Z,31.30
2022-08-18T13:37:28.926Z,31.30
2022-08-18T13:47:32.431Z,31.37
2022-08-18T13:57:49.719Z,31.82
2022-08-18T14:07:52.754Z,31.78
2022-08-18T14:17:55.995Z,30.45
2022-08-18T14:28:04.051Z,30.40
2022-08-18T14:38:10.084Z,29.82
2022-08-18T14:48:12.686Z,29.51
2022-08-18T14:58:16.463Z,29.59
2022-08-18T15:18:46.452Z,29.29
2022-08-18T15:28:50.712Z,29.54
2022-08-18T15:38:53.794Z,29.95
2022-08-18T15:48:57.021Z,30.25
2022-08-18T15:59:07.457Z,30.11
2022-08-18T16:09:10.019Z,29.91
2022-08-18T16:19:12.594Z,29.82
2022-08-18T16:29:15.134Z,29.75
2022-08-18T16:39:17.948Z,29.38
2022-08-18T16:49:21.093Z,28.87
2022-08-18T16:59:42.071Z,28.14
2022-08-18T17:09:45.289Z,27.35
2022-08-18T17:19:48.857Z,26.67
2022-08-18T17:30:02.056Z,26.00
2022-08-18T17:40:15.786Z,25.57
2022-08-18T17:50:47.407Z,25.11
2022-08-18T18:00:50.019Z,24.50
2022-08-18T18:11:07.860Z,24.01
2022-08-18T18:21:16.315Z,23.43
2022-08-18T18:31:27.930Z,23.16
2022-08-18T18:41:32.080Z,22.87
2022-08-18T18:51:50.810Z,22.50
2022-08-18T19:02:34.830Z,22.14
2022-08-18T19:12:53.598Z,21.72
2022-08-18T19:23:04.766Z,21.28
2022-08-18T19:33:08.027Z,20.98
2022-08-18T19:43:13.373Z,20.78
2022-08-18T19:53:15.807Z,20.53
2022-08-18T20:03:36.843Z,20.43
2022-08-18T20:13:43.503Z,20.48
2022-08-18T20:24:24.511Z,20.54
2022-08-18T20:44:08.179Z,19.86
2022-08-18T20:54:25.514Z,19.86
2022-08-18T21:04:41.178Z,19.98
2022-08-18T21:14:52.906Z,20.05
2022-08-18T21:24:56.067Z,20.15
2022-08-18T21:35:08.063Z,20.11
2022-08-18T21:45:18.949Z,19.99
2022-08-18T21:55:26.883Z,19.89
